Time;durP1;ratioP1;P1;durP2;ratioP2;P2;SDS_P1;SDS_P2;PMS_P1;PMS_P2;Temp;Humidity;BMP_temperature;BMP_pressure;BME280_temperature;BME280_humidity;BME280_pressure;Samples;Min_cycle;Max_cycle;Signal;HPM_P1;HPM_P2
2023/09/24 00:01:22;;;;;;;15.10;11.25;;;13.70;99.90;;;;;;5020782;28;20040;-73
2023/09/24 00:03:49;;;;;;;12.82;11.43;;;13.60;99.90;;;;;;5026402;28;20030;-71
2023/09/24 00:06:16;;;;;;;16.52;11.70;;;13.60;99.90;;;;;;5019550;28;20032;-73
2023/09/24 00:08:41;;;;;;;14.65;10.20;;;13.60;99.90;;;;;;5016158;28;20044;-72
2023/09/24 00:11:08;;;;;;;13.32;10.07;;;13.60;99.90;;;;;;5024743;28;20034;-72
2023/09/24 00:13:34;;;;;;;13.63;10.25;;;13.60;99.90;;;;;;5029689;28;20021;-72
2023/09/24 00:16:06;;;;;;;12.75;10.50;;;13.60;99.90;;;;;;5019773;28;20021;-72
2023/09/24 00:18:36;;;;;;;16.23;11.00;;;13.60;99.90;;;;;;5018143;28;20032;-72
2023/09/24 00:21:02;;;;;;;12.60;9.82;;;13.50;99.90;;;;;;5026589;28;20026;-73
2023/09/24 00:23:28;;;;;;;12.68;9.40;;;13.50;99.90;;;;;;5023838;28;20116;-72
2023/09/24 00:25:55;;;;;;;11.75;9.38;;;13.50;99.90;;;;;;5022088;28;20060;-72
2023/09/24 00:28:22;;;;;;;17.33;9.52;;;13.50;99.90;;;;;;5026768;28;20026;-72
2023/09/24 00:30:50;;;;;;;13.60;8.95;;;13.50;99.90;;;;;;5018666;28;20038;-73
2023/09/24 00:33:16;;;;;;;13.40;9.80;;;13.50;99.90;;;;;;5017907;28;20053;-72
2023/09/24 00:35:42;;;;;;;11.07;8.60;;;13.50;99.90;;;;;;5022735;28;20034;-72
2023/09/24 00:38:08;;;;;;;11.30;9.48;;;13.40;99.90;;;;;;5022096;28;20381;-72
2023/09/24 00:40:34;;;;;;;11.00;7.72;;;13.50;99.90;;;;;;5024328;28;20022;-73
2023/09/24 00:43:00;;;;;;;16.25;8.63;;;13.50;99.90;;;;;;5019346;28;20032;-73
2023/09/24 00:45:26;;;;;;;13.50;7.88;;;13.50;99.90;;;;;;5020042;28;20501;-72
2023/09/24 00:47:57;;;;;;;11.15;7.90;;;13.50;99.90;;;;;;5019502;28;20080;-72
2023/09/24 00:50:33;;;;;;;13.00;7.60;;;13.50;99.90;;;;;;5020995;28;20044;-72
2023/09/24 00:52:59;;;;;;;12.20;7.78;;;13.50;99.90;;;;;;5022821;28;20102;-72
2023/09/24 00:55:26;;;;;;;9.82;7.38;;;13.50;99.90;;;;;;5023784;28;20513;-72
2023/09/24 00:57:52;;;;;;;12.82;7.78;;;13.40;99.90;;;;;;5027524;28;20146;-72
2023/09/24 01:00:18;;;;;;;11.32;7.30;;;13.40;99.90;;;;;;5022192;28;20430;-72
2023/09/24 01:02:49;;;;;;;9.27;6.53;;;13.40;99.90;;;;;;5025175;28;20023;-72
2023/09/24 01:05:15;;;;;;;11.27;7.40;;;13.30;99.90;;;;;;5018036;28;20022;-72
2023/09/24 01:07:42;;;;;;;12.18;7.85;;;13.30;99.90;;;;;;5025667;28;20049;-72
2023/09/24 01:10:11;;;;;;;16.95;9.18;;;13.30;99.90;;;;;;5026896;28;20148;-72
2023/09/24 01:12:39;;;;;;;13.38;7.50;;;13.30;99.90;;;;;;5024614;28;20028;-72
2023/09/24 01:15:11;;;;;;;10.57;8.07;;;13.20;99.90;;;;;;5026314;28;20418;-73
2023/09/24 01:17:37;;;;;;;15.38;8.00;;;13.10;99.90;;;;;;5026659;28;20073;-72
2023/09/24 01:20:05;;;;;;;12.85;7.88;;;13.10;99.90;;;;;;5022382;28;20018;-72
2023/09/24 01:22:30;;;;;;;11.75;8.05;;;13.10;99.90;;;;;;5021193;28;20028;-72
2023/09/24 01:24:56;;;;;;;9.00;7.13;;;13.10;99.90;;;;;;5023657;28;20026;-73
2023/09/24 01:27:24;;;;;;;11.80;7.53;;;13.10;99.90;;;;;;5023958;28;20029;-71
2023/09/24 01:29:52;;;;;;;9.48;8.40;;;13.10;99.90;;;;;;5025940;28;20053;-72
2023/09/24 01:32:18;;;;;;;13.05;7.13;;;13.00;99.90;;;;;;5027164;28;20077;-72
2023/09/24 01:34:45;;;;;;;14.07;7.60;;;13.10;99.90;;;;;;5021272;28;20104;-71
2023/09/24 01:37:11;;;;;;;14.30;7.45;;;13.10;99.90;;;;;;5021927;28;20021;-72
2023/09/24 01:39:38;;;;;;;11.60;7.53;;;13.00;99.90;;;;;;5021290;28;20037;-73
2023/09/24 01:42:05;;;;;;;11.93;8.35;;;13.00;99.90;;;;;;5026218;28;20036;-71
2023/09/24 01:44:34;;;;;;;12.30;7.47;;;13.00;99.90;;;;;;5019412;28;20052;-72
2023/09/24 01:47:01;;;;;;;11.85;7.50;;;13.00;99.90;;;;;;5024142;28;20088;-73
2023/09/24 01:49:27;;;;;;;10.07;7.32;;;13.00;99.90;;;;;;5022266;28;20018;-71
2023/09/24 01:51:53;;;;;;;10.43;7.82;;;13.00;99.90;;;;;;5020617;28;20049;-71
2023/09/24 01:54:20;;;;;;;12.85;7.72;;;13.00;99.90;;;;;;5022647;28;20033;-72
2023/09/24 01:56:45;;;;;;;12.45;7.60;;;12.90;99.90;;;;;;5021086;28;20029;-72
2023/09/24 01:59:11;;;;;;;9.95;7.15;;;12.90;99.90;;;;;;5019402;28;20378;-71
2023/09/24 02:01:37;;;;;;;11.18;7.00;;;12.90;99.90;;;;;;5022997;28;20048;-73
2023/09/24 02:04:03;;;;;;;9.75;7.43;;;12.90;99.90;;;;;;5024241;28;20520;-71
2023/09/24 02:06:30;;;;;;;9.35;7.45;;;12.80;99.90;;;;;;5016773;28;20105;-71
2023/09/24 02:08:56;;;;;;;11.88;8.27;;;12.80;99.90;;;;;;5023553;28;20033;-72
2023/09/24 02:11:22;;;;;;;14.88;6.90;;;12.80;99.90;;;;;;5023820;28;20658;-72
2023/09/24 02:13:48;;;;;;;13.30;7.18;;;12.70;99.90;;;;;;5021800;28;20506;-73
2023/09/24 02:16:14;;;;;;;11.65;7.10;;;12.70;99.90;;;;;;5023546;28;20597;-71
2023/09/24 02:18:39;;;;;;;13.57;6.72;;;12.70;99.90;;;;;;5026818;28;20025;-71
2023/09/24 02:21:14;;;;;;;12.18;6.90;;;12.70;99.90;;;;;;5030984;28;20033;-71
2023/09/24 02:23:40;;;;;;;13.23;7.28;;;12.60;99.90;;;;;;5023520;28;20022;-71
2023/09/24 02:26:09;;;;;;;12.00;7.70;;;12.60;99.90;;;;;;5025523;28;20061;-71
2023/09/24 02:28:38;;;;;;;13.43;7.60;;;12.60;99.90;;;;;;5025660;28;20406;-72
2023/09/24 02:31:07;;;;;;;13.52;7.55;;;12.70;99.90;;;;;;5016933;28;20124;-71
2023/09/24 02:33:34;;;;;;;12.95;6.63;;;12.70;99.90;;;;;;5023253;28;20502;-72
2023/09/24 02:36:00;;;;;;;10.07;7.18;;;12.60;99.90;;;;;;5021120;28;20130;-71
2023/09/24 02:38:26;;;;;;;14.05;7.05;;;12.60;99.90;;;;;;5024342;28;20402;-71
2023/09/24 02:40:55;;;;;;;11.85;7.32;;;12.60;99.90;;;;;;5023184;28;20067;-73
2023/09/24 02:43:22;;;;;;;10.52;7.85;;;12.50;99.90;;;;;;5019984;28;20048;-72
2023/09/24 02:45:48;;;;;;;10.95;6.90;;;12.50;99.90;;;;;;5018704;28;20398;-71
2023/09/24 02:48:18;;;;;;;11.70;7.15;;;12.50;99.90;;;;;;5022211;28;20018;-72
2023/09/24 02:50:44;;;;;;;9.13;6.85;;;12.50;99.90;;;;;;5021464;28;20041;-71
2023/09/24 02:53:10;;;;;;;16.10;6.60;;;12.50;99.90;;;;;;5021359;28;20014;-71
2023/09/24 02:55:36;;;;;;;9.32;6.65;;;12.50;99.90;;;;;;5026255;28;20021;-72
2023/09/24 02:58:05;;;;;;;12.38;7.03;;;12.40;99.90;;;;;;5023820;28;20363;-71
2023/09/24 03:00:36;;;;;;;8.90;6.68;;;12.50;99.90;;;;;;5023331;28;20029;-71
2023/09/24 03:03:04;;;;;;;10.35;6.85;;;12.50;99.90;;;;;;5021533;28;20199;-71
2023/09/24 03:05:31;;;;;;;12.30;6.78;;;12.50;99.90;;;;;;5024397;28;20109;-71
2023/09/24 03:08:02;;;;;;;13.35;6.50;;;12.50;99.90;;;;;;5021986;28;20521;-71
2023/09/24 03:10:30;;;;;;;9.05;6.50;;;12.40;99.90;;;;;;5022823;28;21311;-72
2023/09/24 03:12:56;;;;;;;7.47;5.95;;;12.40;99.90;;;;;;5021980;28;20493;-71
2023/09/24 03:15:23;;;;;;;11.48;6.53;;;12.40;99.90;;;;;;5021463;28;20084;-73
2023/09/24 03:17:49;;;;;;;10.15;6.93;;;12.40;99.90;;;;;;5020704;28;20117;-72
2023/09/24 03:20:19;;;;;;;12.50;7.07;;;12.40;99.90;;;;;;5022829;28;20013;-72
2023/09/24 03:22:56;;;;;;;9.55;6.40;;;12.40;99.90;;;;;;5030448;28;20428;-71
2023/09/24 03:25:26;;;;;;;9.68;6.75;;;12.40;99.90;;;;;;5017792;28;20018;-72
2023/09/24 03:27:54;;;;;;;10.75;6.18;;;12.40;99.90;;;;;;5028266;28;20116;-71
2023/09/24 03:30:20;;;;;;;12.45;6.88;;;12.40;99.90;;;;;;5020930;28;20092;-71
2023/09/24 03:32:47;;;;;;;10.43;6.32;;;12.40;99.90;;;;;;5031222;28;20036;-71
2023/09/24 03:35:17;;;;;;;10.07;6.35;;;12.30;99.90;;;;;;5018579;28;20057;-71
2023/09/24 03:37:43;;;;;;;8.63;6.40;;;12.40;99.90;;;;;;5021191;28;20474;-71
2023/09/24 03:40:15;;;;;;;14.05;6.30;;;12.30;99.90;;;;;;5019984;28;20036;-71
2023/09/24 03:42:41;;;;;;;11.93;6.20;;;12.30;99.90;;;;;;5021322;28;20053;-71
2023/09/24 03:45:11;;;;;;;14.70;6.90;;;12.40;99.90;;;;;;5028009;28;20475;-71
2023/09/24 03:47:38;;;;;;;15.55;6.75;;;12.30;99.90;;;;;;5018773;28;20038;-71
2023/09/24 03:50:05;;;;;;;10.65;6.47;;;12.20;99.90;;;;;;5025634;28;20029;-71
2023/09/24 03:52:32;;;;;;;12.38;6.82;;;12.30;99.90;;;;;;5021917;28;20037;-72
2023/09/24 03:55:02;;;;;;;10.27;6.78;;;12.20;99.90;;;;;;5025151;28;20026;-71
2023/09/24 03:57:28;;;;;;;12.35;6.68;;;12.30;99.90;;;;;;5019841;28;20034;-71
2023/09/24 03:59:55;;;;;;;8.98;6.20;;;12.30;99.90;;;;;;5022036;28;20071;-71
2023/09/24 04:02:22;;;;;;;15.77;7.50;;;12.20;99.90;;;;;;5018298;28;20054;-71
2023/09/24 04:04:47;;;;;;;9.40;5.75;;;12.20;99.90;;;;;;5029171;28;20603;-72
2023/09/24 04:07:15;;;;;;;10.85;6.40;;;12.20;99.90;;;;;;5019232;28;20029;-71
2023/09/24 04:09:41;;;;;;;10.77;5.75;;;12.20;99.90;;;;;;5020140;28;20029;-71
2023/09/24 04:12:08;;;;;;;9.80;5.88;;;12.20;99.90;;;;;;5028619;28;20065;-71
2023/09/24 04:14:34;;;;;;;10.07;5.93;;;12.20;99.90;;;;;;5023746;28;20036;-71
2023/09/24 04:17:00;;;;;;;11.43;5.30;;;12.20;99.90;;;;;;5025187;28;20382;-71
2023/09/24 04:19:26;;;;;;;10.73;5.85;;;12.20;99.90;;;;;;5027947;28;20021;-71
2023/09/24 04:21:52;;;;;;;13.05;6.05;;;12.20;99.90;;;;;;5023119;28;20104;-72
2023/09/24 04:24:20;;;;;;;14.93;6.10;;;12.20;99.90;;;;;;5030025;28;20084;-71
2023/09/24 04:26:47;;;;;;;9.65;6.10;;;12.10;99.90;;;;;;5021890;28;20475;-71
2023/09/24 04:29:15;;;;;;;10.20;6.25;;;12.10;99.90;;;;;;5022541;28;20052;-71
2023/09/24 04:31:42;;;;;;;10.63;6.40;;;12.00;99.90;;;;;;5022280;28;20029;-72
2023/09/24 04:34:09;;;;;;;11.20;5.78;;;12.00;99.90;;;;;;5019847;28;20032;-71
2023/09/24 04:36:35;;;;;;;14.00;6.10;;;12.00;99.90;;;;;;5021773;28;20083;-72
2023/09/24 04:39:02;;;;;;;12.07;6.20;;;12.00;99.90;;;;;;5019125;28;20533;-71
2023/09/24 04:41:29;;;;;;;10.88;7.15;;;11.90;99.90;;;;;;5020877;28;20065;-71
2023/09/24 04:43:54;;;;;;;13.70;6.72;;;11.90;99.90;;;;;;5018774;28;20105;-72
2023/09/24 04:46:20;;;;;;;11.13;7.05;;;11.90;99.90;;;;;;5021335;28;20551;-71
2023/09/24 04:48:46;;;;;;;13.70;7.32;;;11.90;99.90;;;;;;5022252;28;20042;-72
2023/09/24 04:51:11;;;;;;;13.48;7.20;;;11.90;99.90;;;;;;5017346;28;20064;-71
2023/09/24 04:53:39;;;;;;;15.07;8.27;;;11.90;99.90;;;;;;5021553;28;21656;-71
2023/09/24 04:56:08;;;;;;;13.82;8.20;;;11.80;99.90;;;;;;5019988;28;20026;-71
2023/09/24 04:58:34;;;;;;;12.93;8.25;;;11.80;99.90;;;;;;5024846;28;20520;-72
2023/09/24 05:01:05;;;;;;;16.40;8.65;;;11.80;99.90;;;;;;5020880;28;20470;-71
2023/09/24 05:03:31;;;;;;;15.48;8.07;;;11.80;99.90;;;;;;5022560;28;20030;-71
2023/09/24 05:05:57;;;;;;;17.15;8.48;;;11.70;99.90;;;;;;5021532;28;20033;-71
2023/09/24 05:08:23;;;;;;;12.93;8.38;;;11.70;99.90;;;;;;5021692;28;20434;-72
2023/09/24 05:10:49;;;;;;;17.40;8.30;;;11.70;99.90;;;;;;5018562;28;20038;-73
2023/09/24 05:13:15;;;;;;;16.40;8.77;;;11.70;99.90;;;;;;5023491;28;20021;-71
2023/09/24 05:15:53;;;;;;;11.32;7.60;;;11.70;99.90;;;;;;5024256;28;20080;-71
2023/09/24 05:18:22;;;;;;;16.58;8.48;;;11.70;99.90;;;;;;5024445;28;20463;-71
2023/09/24 05:20:48;;;;;;;19.23;8.60;;;11.70;99.90;;;;;;5017886;28;20034;-70
2023/09/24 05:23:14;;;;;;;11.23;7.18;;;11.70;99.90;;;;;;5035436;28;20096;-72
2023/09/24 05:25:40;;;;;;;13.95;6.85;;;11.70;99.90;;;;;;5021574;28;20426;-71
2023/09/24 05:28:06;;;;;;;12.50;7.10;;;11.70;99.90;;;;;;5017491;28;20046;-71
2023/09/24 05:30:32;;;;;;;14.55;8.02;;;11.70;99.90;;;;;;5023565;28;20064;-71
2023/09/24 05:32:57;;;;;;;13.35;7.75;;;11.70;99.90;;;;;;5018479;28;20042;-71
2023/09/24 05:35:23;;;;;;;17.75;8.68;;;11.70;99.90;;;;;;5020415;28;20104;-72
2023/09/24 05:37:50;;;;;;;11.55;7.05;;;11.60;99.90;;;;;;5024374;28;20124;-71
2023/09/24 05:40:16;;;;;;;10.35;6.25;;;11.70;99.90;;;;;;5020873;28;20108;-71
2023/09/24 05:42:41;;;;;;;9.48;6.35;;;11.70;99.90;;;;;;5016337;28;20062;-71
2023/09/24 05:45:08;;;;;;;15.55;6.20;;;11.70;99.90;;;;;;5022738;28;20461;-72
2023/09/24 05:47:34;;;;;;;13.63;7.25;;;11.60;99.90;;;;;;5025447;28;20033;-72
2023/09/24 05:50:02;;;;;;;12.82;6.63;;;11.70;99.90;;;;;;5028501;28;20033;-72
2023/09/24 05:52:29;;;;;;;11.15;5.88;;;11.70;99.90;;;;;;5025164;28;20040;-71
2023/09/24 05:54:54;;;;;;;14.15;6.82;;;11.70;99.90;;;;;;5025455;28;20958;-73
2023/09/24 05:57:21;;;;;;;12.90;7.22;;;11.70;99.90;;;;;;5022966;28;20045;-71
2023/09/24 05:59:46;;;;;;;15.07;8.00;;;11.70;99.90;;;;;;5019368;28;20080;-72
2023/09/24 06:02:12;;;;;;;14.85;7.70;;;11.70;99.90;;;;;;5021718;28;20390;-71
2023/09/24 06:04:38;;;;;;;11.43;7.30;;;11.80;99.90;;;;;;5027217;28;20045;-72
2023/09/24 06:07:05;;;;;;;15.05;8.00;;;11.80;99.90;;;;;;5016131;28;20056;-71
2023/09/24 06:09:32;;;;;;;11.18;6.95;;;11.70;99.90;;;;;;5023607;28;20569;-71
2023/09/24 06:11:57;;;;;;;15.57;7.50;;;11.80;99.90;;;;;;5026609;28;20587;-70
2023/09/24 06:14:23;;;;;;;20.50;7.90;;;11.80;99.90;;;;;;5024851;28;20029;-70
2023/09/24 06:16:49;;;;;;;12.05;7.45;;;11.90;99.90;;;;;;5022829;28;20470;-71
2023/09/24 06:19:14;;;;;;;14.20;7.38;;;11.90;99.90;;;;;;5025755;28;20501;-71
2023/09/24 06:21:40;;;;;;;15.02;7.28;;;11.90;99.90;;;;;;5022442;28;20100;-71
2023/09/24 06:24:06;;;;;;;13.88;7.85;;;11.90;99.90;;;;;;5028307;28;20049;-71
2023/09/24 06:26:32;;;;;;;16.75;8.27;;;11.90;99.90;;;;;;5024259;28;20388;-71
2023/09/24 06:28:58;;;;;;;13.43;7.72;;;11.90;99.90;;;;;;5019394;28;20030;-71
2023/09/24 06:31:24;;;;;;;12.55;7.22;;;12.00;99.90;;;;;;5025754;28;20052;-71
2023/09/24 06:33:50;;;;;;;17.70;8.45;;;12.00;99.90;;;;;;5021235;28;20471;-71
2023/09/24 06:36:16;;;;;;;11.45;7.72;;;12.00;99.90;;;;;;5024197;28;20037;-71
2023/09/24 06:38:44;;;;;;;12.57;8.00;;;12.00;99.90;;;;;;5019947;28;20036;-71
2023/09/24 06:41:10;;;;;;;17.92;8.23;;;12.00;99.90;;;;;;5022404;28;20021;-71
2023/09/24 06:43:35;;;;;;;14.65;8.23;;;12.10;99.90;;;;;;5026063;28;20386;-71
2023/09/24 06:46:04;;;;;;;14.75;8.13;;;12.10;99.90;;;;;;5017906;28;20346;-71
2023/09/24 06:48:30;;;;;;;14.70;7.68;;;12.10;99.90;;;;;;5025377;28;20030;-72
2023/09/24 06:51:06;;;;;;;14.20;7.55;;;12.10;99.90;;;;;;5023747;28;20041;-71
2023/09/24 06:53:32;;;;;;;17.80;8.20;;;12.10;99.90;;;;;;5026237;28;20029;-71
2023/09/24 06:55:57;;;;;;;17.60;7.10;;;12.20;99.90;;;;;;5021973;28;20124;-72
2023/09/24 06:58:23;;;;;;;9.90;7.70;;;12.20;99.90;;;;;;5023703;28;20453;-71
2023/09/24 07:00:48;;;;;;;13.63;8.15;;;12.20;99.90;;;;;;5017818;28;20452;-71
2023/09/24 07:03:14;;;;;;;13.60;7.03;;;12.30;99.90;;;;;;5024766;28;20621;-72
2023/09/24 07:05:40;;;;;;;11.60;7.55;;;12.30;99.90;;;;;;5021215;28;20029;-73
2023/09/24 07:08:06;;;;;;;13.45;7.25;;;12.30;99.90;;;;;;5021851;28;20076;-72
2023/09/24 07:10:32;;;;;;;14.23;7.93;;;12.20;99.90;;;;;;5033632;28;20029;-71
2023/09/24 07:12:57;;;;;;;11.85;7.70;;;12.30;99.90;;;;;;5021428;28;20083;-70
2023/09/24 07:15:23;;;;;;;15.45;7.55;;;12.30;99.90;;;;;;5022446;28;20029;-72
2023/09/24 07:17:49;;;;;;;14.30;7.68;;;12.30;99.90;;;;;;5019602;28;20485;-73
2023/09/24 07:20:14;;;;;;;10.18;7.38;;;12.30;99.90;;;;;;5023478;28;20044;-74
2023/09/24 07:22:40;;;;;;;12.52;7.43;;;12.30;99.90;;;;;;5026096;28;20466;-69
2023/09/24 07:25:06;;;;;;;14.52;6.90;;;12.40;99.90;;;;;;5028739;28;20557;-69
2023/09/24 07:27:32;;;;;;;15.85;7.63;;;12.40;99.90;;;;;;5019240;28;20073;-69
2023/09/24 07:29:59;;;;;;;10.73;6.53;;;12.40;99.90;;;;;;5019180;28;20489;-71
2023/09/24 07:32:24;;;;;;;13.65;7.82;;;12.50;99.90;;;;;;5016742;28;20053;-71
2023/09/24 07:34:50;;;;;;;13.73;7.40;;;12.50;99.90;;;;;;5022359;28;20026;-69
2023/09/24 07:37:16;;;;;;;14.00;7.30;;;12.50;99.90;;;;;;5016934;28;20065;-69
2023/09/24 07:39:42;;;;;;;12.02;7.35;;;12.50;99.90;;;;;;5022555;28;20021;-73
2023/09/24 07:42:08;;;;;;;13.40;7.15;;;12.60;99.90;;;;;;5023005;28;20030;-69
2023/09/24 07:44:33;;;;;;;14.05;7.75;;;12.60;99.90;;;;;;5022239;28;20037;-71
2023/09/24 07:47:00;;;;;;;17.42;7.43;;;12.60;99.90;;;;;;5021112;28;20682;-69
2023/09/24 07:49:26;;;;;;;12.40;7.10;;;12.70;99.90;;;;;;5021385;28;20030;-71
2023/09/24 07:51:52;;;;;;;13.90;6.85;;;12.80;99.90;;;;;;5024122;28;20034;-71
2023/09/24 07:54:17;;;;;;;14.48;6.40;;;12.90;99.90;;;;;;5019660;28;20029;-69
2023/09/24 07:56:43;;;;;;;11.18;6.45;;;13.00;99.90;;;;;;5021964;28;20036;-71
2023/09/24 07:59:10;;;;;;;13.38;6.05;;;13.10;99.90;;;;;;5027495;28;20462;-72
2023/09/24 08:01:36;;;;;;;11.60;6.70;;;13.20;99.90;;;;;;5020145;28;20058;-69
2023/09/24 08:04:02;;;;;;;12.85;5.90;;;13.30;99.90;;;;;;5016949;28;20053;-69
2023/09/24 08:06:28;;;;;;;14.95;6.32;;;13.40;99.90;;;;;;5020500;28;20030;-71
2023/09/24 08:08:58;;;;;;;12.85;5.85;;;13.50;99.90;;;;;;5021722;28;20026;-68
2023/09/24 08:11:24;;;;;;;18.95;6.90;;;13.70;99.90;;;;;;5023407;28;20045;-71
2023/09/24 08:13:50;;;;;;;11.25;5.50;;;13.70;99.90;;;;;;5016547;28;20022;-69
2023/09/24 08:16:16;;;;;;;11.95;5.28;;;13.80;99.90;;;;;;5016796;28;20053;-69
2023/09/24 08:18:44;;;;;;;9.35;4.72;;;13.90;99.90;;;;;;5025272;28;20017;-69
2023/09/24 08:21:09;;;;;;;7.32;4.03;;;14.00;99.90;;;;;;5023968;28;20026;-70
2023/09/24 08:23:35;;;;;;;13.98;5.03;;;14.10;99.90;;;;;;5019263;28;20084;-72
2023/09/24 08:26:01;;;;;;;7.88;4.43;;;14.10;99.90;;;;;;5026990;28;20037;-69
2023/09/24 08:28:27;;;;;;;8.73;4.47;;;14.20;99.90;;;;;;5016414;28;20034;-73
2023/09/24 08:30:53;;;;;;;10.05;4.32;;;14.30;99.90;;;;;;5023039;28;20048;-69
2023/09/24 08:33:20;;;;;;;9.15;4.05;;;14.50;99.90;;;;;;5025296;28;20480;-68
2023/09/24 08:35:46;;;;;;;5.65;3.08;;;14.50;99.90;;;;;;5017452;28;20394;-72
2023/09/24 08:38:14;;;;;;;8.68;3.22;;;14.70;99.90;;;;;;5019832;28;20018;-70
2023/09/24 08:40:46;;;;;;;8.20;2.80;;;14.80;99.90;;;;;;5024963;28;20037;-70
2023/09/24 08:43:19;;;;;;;6.38;3.22;;;14.90;99.90;;;;;;5024426;28;20013;-74
2023/09/24 08:45:44;;;;;;;;;;;14.90;99.90;;;;;;5020500;28;20033;-72
2023/09/24 08:48:10;;;;;;;4.78;2.58;;;15.10;99.90;;;;;;5020767;28;19959;-71
2023/09/24 08:50:41;;;;;;;5.57;2.35;;;15.30;99.90;;;;;;5015410;28;20026;-74
2023/09/24 08:53:11;;;;;;;5.88;1.80;;;15.30;99.90;;;;;;5016815;28;20080;-72
2023/09/24 08:55:41;;;;;;;6.70;2.65;;;15.40;99.90;;;;;;5026292;28;20068;-71
2023/09/24 08:58:07;;;;;;;8.23;4.13;;;15.50;99.90;;;;;;5022385;28;20076;-74
2023/09/24 09:00:33;;;;;;;4.45;2.30;;;15.60;99.90;;;;;;5020024;28;20498;-72
2023/09/24 09:03:04;;;;;;;7.85;2.80;;;15.60;99.90;;;;;;5022962;28;20032;-74
2023/09/24 09:05:35;;;;;;;6.85;2.83;;;15.70;99.90;;;;;;5018092;28;20496;-71
2023/09/24 09:08:02;;;;;;;4.25;2.13;;;15.80;99.90;;;;;;5019035;28;20025;-73
2023/09/24 09:10:35;;;;;;;6.55;2.50;;;15.90;99.90;;;;;;5017888;28;20045;-71
2023/09/24 09:13:22;;;;;;;5.47;2.70;;;15.90;99.90;;;;;;5023596;28;20030;-73
2023/09/24 09:16:02;;;;;;;8.57;2.72;;;16.00;99.90;;;;;;5020522;28;20049;-71
2023/09/24 09:18:29;;;;;;;5.78;2.17;;;16.30;99.90;;;;;;5026691;28;20422;-74
2023/09/24 09:21:04;;;;;;;4.15;1.90;;;16.40;99.90;;;;;;5018712;28;20046;-75
2023/09/24 09:23:37;;;;;;;3.85;1.80;;;16.50;99.90;;;;;;5026149;28;20033;-73
2023/09/24 09:26:03;;;;;;;3.38;1.70;;;16.60;99.90;;;;;;5020059;28;20056;-75
2023/09/24 09:28:34;;;;;;;4.85;1.77;;;16.70;99.90;;;;;;5022609;28;20044;-73
2023/09/24 09:31:11;;;;;;;6.72;2.30;;;16.80;99.90;;;;;;5021566;28;20040;-74
2023/09/24 09:33:39;;;;;;;2.67;1.50;;;17.00;99.90;;;;;;5030884;28;20109;-73
2023/09/24 09:36:23;;;;;;;6.60;1.73;;;17.20;99.90;;;;;;5023080;28;20387;-73
2023/09/24 09:38:53;;;;;;;3.58;1.50;;;17.30;99.90;;;;;;5035337;28;20018;-73
2023/09/24 09:41:20;;;;;;;4.63;1.48;;;17.40;99.90;;;;;;5022849;28;20124;-74
2023/09/24 09:43:47;;;;;;;4.85;1.50;;;17.50;99.90;;;;;;5023828;28;20022;-73
2023/09/24 09:46:23;;;;;;;5.43;1.67;;;17.60;99.90;;;;;;5026046;28;20056;-72
2023/09/24 09:48:56;;;;;;;6.82;1.33;;;17.80;99.90;;;;;;5024296;28;20028;-72
2023/09/24 09:51:24;;;;;;;3.25;1.25;;;17.90;99.90;;;;;;5020315;28;20156;-75
2023/09/24 09:53:50;;;;;;;5.10;1.30;;;18.20;99.90;;;;;;5021525;28;20386;-75
2023/09/24 09:56:18;;;;;;;5.00;1.33;;;18.20;99.90;;;;;;5023017;28;20121;-76
2023/09/24 09:58:47;;;;;;;3.42;1.27;;;18.30;99.90;;;;;;5020829;28;20037;-76
2023/09/24 10:01:13;;;;;;;3.70;1.40;;;18.30;99.90;;;;;;5029484;28;20520;-73
2023/09/24 10:03:43;;;;;;;3.83;1.58;;;18.40;99.90;;;;;;5019952;28;20022;-75
2023/09/24 10:06:10;;;;;;;4.78;1.30;;;18.50;99.90;;;;;;5023416;28;20062;-76
2023/09/24 10:08:39;;;;;;;2.67;1.10;;;18.70;99.90;;;;;;5024031;28;20022;-75
2023/09/24 10:11:05;;;;;;;2.67;1.33;;;18.80;99.90;;;;;;5022623;28;20536;-76
2023/09/24 10:13:43;;;;;;;1.73;1.00;;;18.90;99.90;;;;;;5025830;28;20017;-76
2023/09/24 10:16:30;;;;;;;8.40;1.38;;;19.00;99.90;;;;;;5022790;28;20105;-76
2023/09/24 10:19:07;;;;;;;2.53;1.10;;;19.20;99.90;;;;;;5031077;28;20477;-75
2023/09/24 10:21:43;;;;;;;5.90;1.50;;;19.30;99.90;;;;;;5024691;28;20021;-77
2023/09/24 10:24:12;;;;;;;3.78;1.08;;;19.30;99.90;;;;;;5021694;28;20026;-74
2023/09/24 10:27:03;;;;;;;3.20;1.38;;;19.40;99.90;;;;;;5020459;28;20040;-76
2023/09/24 10:29:51;;;;;;;4.30;1.23;;;19.30;99.90;;;;;;5021281;28;20038;-73
2023/09/24 10:32:24;;;;;;;2.67;1.02;;;19.50;99.90;;;;;;5027731;28;20460;-74
2023/09/24 10:34:55;;;;;;;6.70;1.33;;;19.70;99.90;;;;;;5021510;28;20516;-73
2023/09/24 10:37:34;;;;;;;4.25;1.42;;;19.80;99.90;;;;;;5019482;28;20525;-76
2023/09/24 10:40:05;;;;;;;3.50;1.48;;;20.00;99.90;;;;;;5022533;28;20048;-76
2023/09/24 10:42:32;;;;;;;1.77;0.87;;;20.00;99.90;;;;;;5018938;28;20022;-76
2023/09/24 10:45:06;;;;;;;3.72;1.30;;;20.10;99.90;;;;;;5021240;28;20288;-75
2023/09/24 10:47:34;;;;;;;4.28;1.10;;;20.10;99.90;;;;;;5015932;28;20034;-74
2023/09/24 10:50:04;;;;;;;2.38;1.10;;;20.10;99.90;;;;;;5026351;28;20022;-75
2023/09/24 10:52:52;;;;;;;1.60;1.30;;;20.20;99.90;;;;;;5026607;28;20029;-77
2023/09/24 10:55:19;;;;;;;4.00;1.50;;;20.20;99.90;;;;;;5027849;28;20041;-76
2023/09/24 10:57:46;;;;;;;6.20;1.60;;;20.30;99.90;;;;;;5022204;28;20026;-77
2023/09/24 11:00:17;;;;;;;2.22;1.15;;;20.50;99.90;;;;;;5023389;28;20030;-76
2023/09/24 11:02:44;;;;;;;1.73;1.50;;;20.50;99.90;;;;;;5018712;28;20026;-77
2023/09/24 11:05:10;;;;;;;3.42;1.20;;;20.60;99.90;;;;;;5027992;28;20032;-76
2023/09/24 11:07:36;;;;;;;4.35;1.50;;;20.50;99.90;;;;;;5031107;28;20037;-75
2023/09/24 11:10:02;;;;;;;5.72;1.73;;;20.60;99.90;;;;;;5023038;28;20062;-76
2023/09/24 11:12:28;;;;;;;2.55;1.50;;;20.60;99.90;;;;;;5022685;28;20461;-73
2023/09/24 11:14:58;;;;;;;2.80;1.20;;;20.70;99.90;;;;;;5020988;28;20116;-77
2023/09/24 11:17:25;;;;;;;3.97;1.20;;;20.60;99.90;;;;;;5022320;28;20517;-76
2023/09/24 11:19:51;;;;;;;4.85;1.45;;;20.60;99.90;;;;;;5024233;28;20109;-75
2023/09/24 11:22:23;;;;;;;3.42;1.45;;;20.70;99.90;;;;;;5027960;28;20322;-73
2023/09/24 11:25:04;;;;;;;2.28;1.42;;;20.80;99.90;;;;;;5025143;28;20116;-73
2023/09/24 11:27:34;;;;;;;4.03;1.40;;;20.60;99.90;;;;;;5019090;28;21754;-74
2023/09/24 11:30:02;;;;;;;2.97;1.52;;;20.50;99.90;;;;;;5028214;28;20470;-73
2023/09/24 11:32:28;;;;;;;5.13;1.67;;;20.40;99.90;;;;;;5021186;28;20065;-72
2023/09/24 11:35:13;;;;;;;4.40;1.80;;;20.40;99.90;;;;;;5024513;28;20378;-72
2023/09/24 11:38:00;;;;;;;2.40;1.38;;;20.40;99.90;;;;;;5023601;28;20034;-72
2023/09/24 11:40:31;;;;;;;6.07;1.70;;;20.50;99.90;;;;;;5026654;28;20120;-74
2023/09/24 11:43:08;;;;;;;6.00;1.65;;;20.50;99.90;;;;;;5018373;28;20038;-72
2023/09/24 11:45:46;;;;;;;3.88;1.55;;;20.60;99.90;;;;;;5018332;28;20028;-72
2023/09/24 11:48:25;;;;;;;3.40;1.60;;;20.70;99.90;;;;;;5020974;28;20030;-73
2023/09/24 11:50:52;;;;;;;1.80;1.33;;;20.90;99.90;;;;;;5026541;28;20025;-74
2023/09/24 11:53:23;;;;;;;3.50;1.30;;;20.80;99.90;;;;;;5027897;28;20159;-74
2023/09/24 11:55:50;;;;;;;3.08;1.60;;;20.80;99.90;;;;;;5027726;28;20028;-74
2023/09/24 11:58:17;;;;;;;2.72;1.35;;;20.90;99.90;;;;;;5023810;28;20025;-74
2023/09/24 12:00:44;;;;;;;2.05;1.55;;;21.00;99.90;;;;;;5015183;28;20026;-75
2023/09/24 12:03:15;;;;;;;3.13;1.27;;;21.00;99.90;;;;;;5016575;28;20029;-75
2023/09/24 12:05:41;;;;;;;2.72;1.45;;;21.00;99.90;;;;;;5024228;28;20022;-76
2023/09/24 12:08:08;;;;;;;7.00;1.90;;;20.90;99.90;;;;;;5018964;28;20076;-76
2023/09/24 12:10:37;;;;;;;4.80;2.10;;;21.20;99.90;;;;;;5021581;28;20033;-74
2023/09/24 12:13:04;;;;;;;2.53;1.63;;;21.30;99.90;;;;;;5021272;28;20040;-75
2023/09/24 12:15:31;;;;;;;3.60;1.98;;;21.40;99.90;;;;;;5023990;28;20018;-74
2023/09/24 12:17:58;;;;;;;3.97;1.13;;;21.60;99.90;;;;;;5022793;28;20036;-72
2023/09/24 12:20:25;;;;;;;4.03;1.30;;;21.60;99.90;;;;;;5016538;28;20026;-72
2023/09/24 12:22:51;;;;;;;2.13;1.27;;;21.70;99.90;;;;;;5021426;28;20029;-75
2023/09/24 12:25:17;;;;;;;6.45;1.33;;;21.60;99.90;;;;;;5020460;28;20467;-75
2023/09/24 12:27:43;;;;;;;3.05;1.65;;;21.40;99.90;;;;;;5017404;28;20030;-72
2023/09/24 12:30:11;;;;;;;5.75;1.75;;;21.40;99.90;;;;;;5024593;28;20083;-73
2023/09/24 12:32:38;;;;;;;2.88;1.50;;;21.50;99.90;;;;;;5025989;28;20130;-74
2023/09/24 12:35:05;;;;;;;5.50;1.45;;;21.70;99.90;;;;;;5019419;28;20014;-72
2023/09/24 12:37:32;;;;;;;2.30;1.27;;;21.80;99.90;;;;;;5018772;28;20528;-72
2023/09/24 12:39:58;;;;;;;2.55;1.30;;;21.60;99.90;;;;;;5023645;28;20117;-75
2023/09/24 12:42:31;;;;;;;1.80;1.13;;;21.60;99.90;;;;;;5022486;28;20025;-71
2023/09/24 12:44:58;;;;;;;5.22;3.60;;;21.50;99.90;;;;;;5022507;28;20477;-73